Аэропорт: Усть-Каменогорск. Усть-Каменогорск

ICAO: UASK

METAR:
2021-04-21 20:00:00
UASK 212000Z VRB01MPS 9999 BKN076 M03/M08 Q1024 R30/090060 NOSIG RMK QFE742/0990
METAR:
Информация по данной станции не доступна